Time;durP1;ratioP1;P1;durP2;ratioP2;P2;SDS_P1;SDS_P2;PMS_P1;PMS_P2;Temp;Humidity;BMP_temperature;BMP_pressure;BME280_temperature;BME280_humidity;BME280_pressure;Samples;Min_cycle;Max_cycle;Signal;HPM_P1;HPM_P2
2021/06/07 00:01:56;;;;;;;12.40;3.60;;;;;;;13.77;89.45;100330.28;1782956;80;20924;-40
2021/06/07 00:04:24;;;;;;;21.05;4.22;;;;;;;13.74;89.55;100329.91;1783108;80;20897;-39
2021/06/07 00:06:50;;;;;;;15.70;3.70;;;;;;;13.72;89.61;100323.92;1782760;80;20929;-38
2021/06/07 00:09:17;;;;;;;16.70;3.72;;;;;;;13.71;89.71;100320.92;1783021;80;21020;-38
2021/06/07 00:11:49;;;;;;;11.95;3.40;;;;;;;13.70;89.77;100330.92;1782865;80;21655;-38
2021/06/07 00:14:18;;;;;;;15.48;3.67;;;;;;;13.69;90.00;100328.39;1782504;80;20995;-39
2021/06/07 00:16:47;;;;;;;17.87;3.55;;;;;;;13.70;90.13;100337.42;1782917;80;20988;-40
2021/06/07 00:19:17;;;;;;;18.92;3.30;;;;;;;13.70;90.38;100328.33;1754724;80;20920;-39
2021/06/07 00:21:46;;;;;;;26.87;4.53;;;;;;;13.69;90.49;100322.72;1783055;80;21002;-38
2021/06/07 00:24:16;;;;;;;13.83;3.22;;;;;;;13.65;90.59;100329.80;1782817;80;20944;-38
2021/06/07 00:26:43;;;;;;;16.97;3.80;;;;;;;13.62;90.76;100323.84;1782619;79;20967;-40
2021/06/07 00:29:11;;;;;;;28.70;4.20;;;;;;;13.59;90.89;100331.28;1782851;80;21015;-38
2021/06/07 00:31:39;;;;;;;15.20;4.55;;;;;;;13.57;91.13;100330.48;1783154;80;20931;-38
2021/06/07 00:34:06;;;;;;;17.65;3.92;;;;;;;13.55;91.47;100328.85;1783089;80;20909;-39
2021/06/07 00:36:34;;;;;;;19.12;4.55;;;;;;;13.53;91.77;100325.45;1782768;79;21216;-39
2021/06/07 00:39:06;;;;;;;16.07;4.25;;;;;;;13.49;91.98;100324.23;1783090;80;21533;-39
2021/06/07 00:41:32;;;;;;;20.82;4.60;;;;;;;13.45;92.12;100320.50;1745288;82;20937;-39
2021/06/07 00:44:01;;;;;;;17.12;4.08;;;;;;;13.42;92.33;100330.50;1745698;82;20916;-39
2021/06/07 00:46:27;;;;;;;31.50;4.28;;;;;;;13.40;92.46;100330.17;1745867;82;21600;-40
2021/06/07 00:48:54;;;;;;;25.68;4.58;;;;;;;13.38;92.65;100325.01;1717665;83;21190;-39
2021/06/07 00:51:21;;;;;;;25.05;4.47;;;;;;;13.38;92.78;100326.30;1746334;82;20944;-38
2021/06/07 00:53:47;;;;;;;25.72;4.22;;;;;;;13.39;92.91;100328.44;1746560;82;20913;-39
2021/06/07 00:56:14;;;;;;;24.50;5.17;;;;;;;13.37;92.96;100331.94;1746262;82;21494;-40
2021/06/07 00:58:46;;;;;;;21.55;4.87;;;;;;;13.38;92.97;100331.50;1746251;82;20948;-39
2021/06/07 01:01:22;;;;;;;31.23;4.62;;;;;;;13.38;93.01;100330.20;1746571;81;21123;-39
2021/06/07 01:03:53;;;;;;;25.57;4.25;;;;;;;13.39;93.03;100329.73;1746202;82;20980;-38
2021/06/07 01:06:20;;;;;;;14.78;4.25;;;;;;;13.40;93.01;100330.17;1746633;82;20988;-40
2021/06/07 01:08:46;;;;;;;16.75;3.80;;;;;;;13.40;93.08;100331.47;1746492;82;20893;-39
2021/06/07 01:11:13;;;;;;;34.23;4.80;;;;;;;13.41;93.18;100328.80;1746385;82;20988;-39
2021/06/07 01:13:42;;;;;;;24.72;4.95;;;;;;;13.41;93.23;100326.67;1746254;82;20968;-40
2021/06/07 01:16:10;;;;;;;15.80;4.33;;;;;;;13.42;93.28;100324.00;1741018;82;21008;-38
2021/06/07 01:18:38;;;;;;;22.15;4.08;;;;;;;13.45;93.37;100325.70;1740932;82;20971;-39
2021/06/07 01:21:12;;;;;;;21.35;3.95;;;;;;;13.48;93.52;100328.20;1741303;82;21474;-39
2021/06/07 01:23:40;;;;;;;23.05;4.20;;;;;;;13.50;93.56;100324.63;1741029;82;21028;-40
2021/06/07 01:26:06;;;;;;;9.58;3.55;;;;;;;13.54;93.66;100324.55;1741073;81;21178;-38
2021/06/07 01:28:34;;;;;;;6.65;3.77;;;;;;;13.56;93.77;100326.19;1740939;82;21007;-40
2021/06/07 01:31:01;;;;;;;10.70;3.52;;;;;;;13.59;93.89;100329.14;1740990;82;21012;-40
2021/06/07 01:33:28;;;;;;;8.98;3.62;;;;;;;13.60;94.06;100325.17;1741241;82;21566;-40
2021/06/07 01:35:57;;;;;;;7.75;3.10;;;;;;;13.62;94.35;100327.27;1740938;82;20985;-38
2021/06/07 01:38:25;;;;;;;12.40;3.95;;;;;;;13.62;94.56;100325.14;1741052;82;21799;-39
2021/06/07 01:40:56;;;;;;;7.40;3.17;;;;;;;13.63;94.73;100329.44;1741213;82;20992;-38
2021/06/07 01:43:22;;;;;;;8.75;2.85;;;;;;;13.62;94.79;100328.58;1740078;82;21574;-40
2021/06/07 01:45:50;;;;;;;14.55;3.20;;;;;;;13.62;94.74;100330.34;1740848;82;20982;-39
2021/06/07 01:48:20;;;;;;;18.70;4.00;;;;;;;13.61;94.73;100327.34;1740916;82;21015;-39
2021/06/07 01:50:47;;;;;;;9.90;3.92;;;;;;;13.61;94.73;100328.17;1741014;82;21965;-39
2021/06/07 01:53:15;;;;;;;13.10;3.52;;;;;;;13.61;94.73;100330.78;1740946;82;22769;-39
2021/06/07 01:55:45;;;;;;;12.20;3.65;;;;;;;13.63;94.78;100334.64;1740955;82;20921;-38
2021/06/07 01:58:13;;;;;;;12.95;3.42;;;;;;;13.65;94.66;100335.00;1740933;82;20996;-39
2021/06/07 02:00:54;;;;;;;7.25;3.12;;;;;;;13.68;94.57;100334.03;1741225;82;20932;-38
2021/06/07 02:03:21;;;;;;;10.78;3.15;;;;;;;13.69;94.52;100332.30;1740921;82;21856;-39
2021/06/07 02:05:52;;;;;;;9.20;3.50;;;;;;;13.70;94.50;100330.92;1740995;82;21000;-38
2021/06/07 02:08:20;;;;;;;18.70;3.85;;;;;;;13.72;94.48;100333.48;1741250;82;21514;-38
2021/06/07 02:10:51;;;;;;;11.78;3.40;;;;;;;13.74;94.57;100336.42;1741001;82;21385;-40
2021/06/07 02:13:17;;;;;;;16.57;3.83;;;;;;;13.77;94.82;100328.97;1741038;82;21590;-39
2021/06/07 02:15:56;;;;;;;20.77;3.87;;;;;;;13.80;95.04;100326.27;1742152;82;21229;-39
2021/06/07 02:18:22;;;;;;;24.23;3.50;;;;;;;13.83;95.14;100327.45;1779232;80;20995;-39
2021/06/07 02:20:49;;;;;;;11.83;4.03;;;;;;;13.85;95.25;100329.55;1779823;80;21020;-39
2021/06/07 02:23:15;;;;;;;35.08;5.22;;;;;;;13.88;95.37;100338.55;1779792;80;21063;-39
2021/06/07 02:25:42;;;;;;;25.90;4.12;;;;;;;13.90;95.53;100338.52;1779895;80;21462;-40
2021/06/07 02:30:29;;;;;;;9.13;4.00;;;;;;;14.00;95.47;100337.75;1797702;79;22754;-39
2021/06/07 02:32:57;;;;;;;12.88;3.45;;;;;;;13.99;95.39;100344.69;1757454;80;21583;-39
2021/06/07 02:35:24;;;;;;;6.03;2.85;;;;;;;14.02;95.19;100343.75;1757364;81;21114;-40
2021/06/07 02:37:52;;;;;;;4.80;2.70;;;;;;;14.04;94.99;100343.24;1757446;81;20897;-39
2021/06/07 02:40:27;;;;;;;5.97;2.83;;;;;;;14.05;94.88;100347.11;1757334;81;20944;-40
2021/06/07 02:42:54;;;;;;;5.72;3.00;;;;;;;14.08;94.74;100341.79;1757395;81;20916;-38
2021/06/07 02:45:21;;;;;;;6.90;3.10;;;;;;;14.10;94.42;100344.32;1757417;80;21001;-37
2021/06/07 02:47:51;;;;;;;8.85;2.77;;;;;;;14.15;94.20;100348.94;1757350;81;20979;-40
2021/06/07 02:50:22;;;;;;;5.80;3.00;;;;;;;14.19;94.03;100350.96;1757264;81;21805;-39
2021/06/07 02:52:49;;;;;;;5.30;2.95;;;;;;;14.23;93.79;100355.15;1757529;81;20932;-38
2021/06/07 02:55:19;;;;;;;6.78;2.60;;;;;;;14.27;93.54;100354.60;1757267;81;21519;-40
2021/06/07 02:57:47;;;;;;;5.15;2.80;;;;;;;14.30;93.25;100352.75;1724102;83;22193;-39
2021/06/07 03:00:18;;;;;;;5.60;3.30;;;;;;;14.33;92.97;100356.55;1723930;83;21836;-40
2021/06/07 03:02:45;;;;;;;5.20;2.85;;;;;;;14.37;92.72;100354.66;1723899;83;20936;-39
2021/06/07 03:05:12;;;;;;;6.00;3.10;;;;;;;14.41;92.26;100358.02;1723960;83;20951;-38
2021/06/07 03:07:39;;;;;;;5.33;2.87;;;;;;;14.44;91.88;100357.90;1723948;82;20931;-39
2021/06/07 03:10:09;;;;;;;9.93;2.92;;;;;;;14.49;91.56;100359.44;1723915;83;21002;-38
2021/06/07 03:12:38;;;;;;;9.20;3.22;;;;;;;14.54;91.21;100363.19;1723960;83;21532;-39
2021/06/07 03:15:07;;;;;;;17.92;3.30;;;;;;;14.58;90.71;100360.86;1723855;83;21539;-39
2021/06/07 03:17:34;;;;;;;9.20;3.20;;;;;;;14.63;90.53;100356.33;1723898;81;20856;-39
2021/06/07 03:20:00;;;;;;;6.87;2.40;;;;;;;14.68;89.99;100354.00;1723764;81;20982;-39
2021/06/07 03:22:27;;;;;;;4.67;2.40;;;;;;;14.73;89.80;100350.80;1723924;83;20951;-39
2021/06/07 03:24:53;;;;;;;10.53;2.85;;;;;;;14.77;89.61;100346.72;1723280;83;21150;-38
2021/06/07 03:27:20;;;;;;;8.85;2.52;;;;;;;14.81;89.27;100346.17;1697759;83;21003;-40
2021/06/07 03:29:46;;;;;;;9.60;2.65;;;;;;;14.88;89.11;100348.06;1690337;84;21068;-40
2021/06/07 03:32:13;;;;;;;3.10;2.52;;;;;;;14.89;88.84;100348.02;1685710;83;21063;-40
2021/06/07 03:34:40;;;;;;;10.08;3.10;;;;;;;14.90;88.25;100348.84;1710988;82;21556;-39
2021/06/07 03:37:06;;;;;;;7.08;2.30;;;;;;;14.91;88.12;100346.20;1701379;84;21796;-39
2021/06/07 03:39:33;;;;;;;18.00;3.20;;;;;;;14.93;87.72;100339.17;1710938;83;20912;-40
2021/06/07 03:42:00;;;;;;;6.72;2.45;;;;;;;14.98;87.94;100347.27;1700880;84;20971;-39
2021/06/07 03:44:26;;;;;;;3.98;2.08;;;;;;;15.01;87.96;100343.23;1710456;82;21485;-39
2021/06/07 03:46:53;;;;;;;7.65;2.62;;;;;;;15.04;87.40;100344.44;1656375;84;21007;-39
2021/06/07 03:49:20;;;;;;;8.45;2.40;;;;;;;15.05;87.22;100346.14;1700843;83;21153;-39
2021/06/07 03:51:46;;;;;;;3.72;2.27;;;;;;;15.03;86.50;100344.02;1710272;82;21010;-41
2021/06/07 03:54:13;;;;;;;7.12;1.98;;;;;;;15.01;86.57;100348.44;1700705;84;20972;-40
2021/06/07 03:56:39;;;;;;;3.55;2.08;;;;;;;14.99;86.52;100344.61;1710429;82;20995;-40
2021/06/07 03:59:06;;;;;;;12.80;2.20;;;;;;;14.99;86.74;100347.22;1700853;84;20940;-40
2021/06/07 04:01:32;;;;;;;10.03;2.33;;;;;;;14.99;86.63;100346.34;1710582;83;21159;-40
2021/06/07 04:03:59;;;;;;;6.97;2.10;;;;;;;15.01;86.78;100350.61;1700826;84;21047;-40
2021/06/07 04:06:25;;;;;;;3.92;2.15;;;;;;;15.05;86.82;100350.05;1710577;83;21027;-40
2021/06/07 04:08:56;;;;;;;19.98;2.90;;;;;;;15.06;86.84;100347.83;1700758;83;21003;-40
2021/06/07 04:11:21;;;;;;;5.33;2.10;;;;;;;15.07;86.91;100345.15;1710362;82;20967;-39
2021/06/07 04:13:48;;;;;;;2.55;1.82;;;;;;;15.08;86.53;100350.75;1700819;84;21119;-40
2021/06/07 04:16:14;;;;;;;5.35;2.25;;;;;;;15.13;86.79;100354.50;1710433;83;20987;-39
2021/06/07 04:18:41;;;;;;;5.20;1.95;;;;;;;15.14;86.41;100352.72;1700840;84;20972;-39
2021/06/07 04:21:08;;;;;;;7.08;2.08;;;;;;;15.15;86.19;100356.59;1710372;83;20955;-39
2021/06/07 04:23:34;;;;;;;2.77;1.72;;;;;;;15.17;85.99;100355.23;1700892;84;20980;-41
2021/06/07 04:26:03;;;;;;;3.27;1.80;;;;;;;15.18;85.65;100360.84;1710505;82;21039;-39
2021/06/07 04:28:33;;;;;;;4.67;2.00;;;;;;;15.20;85.56;100362.94;1700794;84;20999;-40
2021/06/07 04:31:01;;;;;;;5.87;1.60;;;;;;;15.27;85.38;100363.52;1720372;83;21010;-39
2021/06/07 04:33:27;;;;;;;4.97;1.50;;;;;;;15.33;85.12;100358.08;1691997;83;21063;-38
2021/06/07 04:35:53;;;;;;;5.60;1.55;;;;;;;15.43;85.21;100355.95;1692128;83;21671;-41
2021/06/07 04:38:20;;;;;;;6.25;1.52;;;;;;;15.56;84.90;100352.40;1692055;84;21131;-39
2021/06/07 04:40:46;;;;;;;4.85;1.40;;;;;;;15.65;84.28;100356.75;1692015;84;21445;-41
2021/06/07 04:43:14;;;;;;;3.22;1.80;;;;;;;15.71;83.64;100350.44;1692074;84;21561;-38
2021/06/07 04:45:44;;;;;;;6.37;1.87;;;;;;;15.78;83.57;100355.78;1692146;84;21046;-41
2021/06/07 04:48:10;;;;;;;7.20;1.70;;;;;;;15.88;83.22;100355.42;1692094;84;21353;-39
2021/06/07 04:50:37;;;;;;;1.37;1.27;;;;;;;15.94;82.90;100359.09;1691945;83;21180;-39
2021/06/07 04:53:05;;;;;;;4.65;1.80;;;;;;;15.97;82.28;100355.05;1691960;84;20975;-40
2021/06/07 04:55:48;;;;;;;2.60;1.30;;;;;;;15.99;82.01;100361.52;1692132;84;20986;-39
2021/06/07 04:58:27;;;;;;;3.80;1.67;;;;;;;16.06;82.46;100361.20;1692011;84;20927;-38
2021/06/07 05:01:00;;;;;;;6.15;1.52;;;;;;;16.18;81.97;100370.71;1692194;84;20986;-39
2021/06/07 05:03:27;;;;;;;4.47;1.42;;;;;;;16.29;82.19;100368.94;1692105;84;21085;-39
2021/06/07 05:05:55;;;;;;;3.65;1.50;;;;;;;16.36;81.81;100372.53;1692018;84;20990;-40
2021/06/07 05:08:23;;;;;;;4.78;1.30;;;;;;;16.42;80.91;100371.86;1692059;83;21047;-40
2021/06/07 05:10:51;;;;;;;2.92;1.60;;;;;;;16.47;81.33;100372.50;1720905;83;20947;-39
2021/06/07 05:13:17;;;;;;;1.82;1.70;;;;;;;16.50;80.58;100372.36;1721006;83;21331;-38
2021/06/07 05:15:44;;;;;;;2.25;1.80;;;;;;;16.52;80.53;100367.91;1691859;84;21156;-40
2021/06/07 05:18:11;;;;;;;3.98;1.57;;;;;;;16.52;79.61;100370.52;1691961;84;20957;-40
2021/06/07 05:20:37;;;;;;;3.95;1.87;;;;;;;16.54;79.62;100369.16;1692182;84;21024;-40
2021/06/07 05:23:03;;;;;;;2.98;1.80;;;;;;;16.57;79.54;100371.19;1691936;83;20987;-40
2021/06/07 05:25:32;;;;;;;4.72;1.92;;;;;;;16.68;79.37;100370.70;1692235;84;20999;-40
2021/06/07 05:27:59;;;;;;;8.35;2.00;;;;;;;16.76;78.86;100376.42;1692112;84;21168;-39
2021/06/07 05:30:28;;;;;;;3.92;2.20;;;;;;;16.86;79.15;100376.85;1691832;84;21026;-40
2021/06/07 05:32:55;;;;;;;3.12;2.02;;;;;;;16.98;78.62;100382.42;1691965;83;20940;-39
2021/06/07 05:35:23;;;;;;;3.00;2.20;;;;;;;17.03;78.17;100391.78;1692034;83;20955;-37
2021/06/07 05:37:50;;;;;;;10.53;2.40;;;;;;;17.07;77.48;100390.72;1692009;83;21501;-38
2021/06/07 05:40:18;;;;;;;2.83;2.30;;;;;;;17.15;77.07;100389.50;1692137;84;21845;-38
2021/06/07 05:42:46;;;;;;;3.67;3.30;;;;;;;17.27;77.17;100379.78;1692002;83;21018;-38
2021/06/07 05:45:13;;;;;;;6.65;3.77;;;;;;;17.44;77.01;100382.06;1692069;84;20947;-38
2021/06/07 05:47:40;;;;;;;5.17;4.67;;;;;;;17.60;76.35;100380.84;1692389;83;21041;-39
2021/06/07 05:50:11;;;;;;;6.37;5.78;;;;;;;17.78;75.36;100381.22;1691957;83;20974;-39
2021/06/07 05:52:47;;;;;;;5.78;5.05;;;;;;;17.97;75.87;100375.06;1692165;83;21160;-40
2021/06/07 05:55:28;;;;;;;6.97;4.78;;;;;;;18.26;74.73;100371.44;1692030;84;21576;-38
2021/06/07 05:57:58;;;;;;;5.95;5.35;;;;;;;18.51;74.18;100379.33;1692009;84;20959;-40
2021/06/07 06:00:28;;;;;;;6.67;5.05;;;;;;;18.79;73.33;100374.77;1691920;84;21539;-40
2021/06/07 06:02:54;;;;;;;4.40;4.03;;;;;;;18.95;71.86;100370.84;1692026;84;21069;-38
2021/06/07 06:05:21;;;;;;;6.92;4.45;;;;;;;19.05;71.17;100367.73;1692044;84;21154;-39
2021/06/07 06:07:47;;;;;;;4.50;4.10;;;;;;;19.11;70.20;100366.10;1692146;84;21752;-39
2021/06/07 06:10:16;;;;;;;5.85;3.77;;;;;;;19.12;70.53;100370.41;1720808;83;20983;-39
2021/06/07 06:12:46;;;;;;;2.80;2.60;;;;;;;19.20;71.57;100365.57;1720818;83;21057;-40
2021/06/07 06:15:16;;;;;;;3.55;1.80;;;;;;;19.37;70.53;100365.09;1692028;83;21580;-41
2021/06/07 06:17:43;;;;;;;10.75;1.77;;;;;;;19.41;69.13;100362.67;1692055;83;21135;-39
2021/06/07 06:20:11;;;;;;;2.87;1.57;;;;;;;19.37;69.28;100362.47;1692345;84;20920;-39
2021/06/07 06:22:37;;;;;;;6.53;1.37;;;;;;;19.47;68.18;100368.05;1692216;83;20962;-38
2021/06/07 06:25:06;;;;;;;4.45;1.47;;;;;;;19.51;68.12;100357.26;1692185;83;20907;-39
2021/06/07 06:27:34;;;;;;;4.35;1.82;;;;;;;19.50;67.42;100359.99;1692064;84;21552;-38
2021/06/07 06:30:01;;;;;;;3.58;1.62;;;;;;;19.32;67.15;100368.42;1687200;84;21130;-39
2021/06/07 06:32:28;;;;;;;5.95;1.35;;;;;;;19.22;67.67;100363.70;1735102;82;21012;-41
2021/06/07 06:34:55;;;;;;;16.42;1.87;;;;;;;19.19;68.72;100363.88;1700118;84;20905;-39
2021/06/07 06:37:21;;;;;;;5.33;1.50;;;;;;;19.26;68.93;100359.59;1695252;84;21019;-39
2021/06/07 06:39:47;;;;;;;1.52;1.42;;;;;;;19.35;68.98;100362.55;1695269;84;21035;-41
2021/06/07 06:42:14;;;;;;;5.85;1.70;;;;;;;19.43;68.08;100359.48;1695294;84;21132;-39
2021/06/07 06:44:41;;;;;;;14.25;2.00;;;;;;;19.36;69.13;100361.61;1694969;84;21058;-38
2021/06/07 06:47:07;;;;;;;6.60;1.50;;;;;;;19.59;68.94;100363.88;1695223;84;20972;-40
2021/06/07 06:49:36;;;;;;;11.60;1.70;;;;;;;19.80;68.96;100363.91;1695090;84;20988;-39
2021/06/07 06:52:04;;;;;;;10.60;1.60;;;;;;;20.05;68.24;100366.91;1695166;83;20980;-40
2021/06/07 06:54:30;;;;;;;6.58;1.70;;;;;;;20.36;68.00;100365.91;1695175;84;21135;-40
2021/06/07 06:56:57;;;;;;;3.33;1.90;;;;;;;20.68;66.38;100367.45;1695086;84;21031;-39
2021/06/07 06:59:23;;;;;;;16.60;2.80;;;;;;;20.73;64.91;100370.67;1695187;84;20996;-40
2021/06/07 07:01:50;;;;;;;18.70;2.90;;;;;;;20.79;65.07;100370.73;1695239;84;20936;-41
2021/06/07 07:04:17;;;;;;;13.43;2.77;;;;;;;20.92;65.08;100373.47;1695237;84;20932;-39
2021/06/07 07:06:43;;;;;;;2.42;2.12;;;;;;;20.90;63.11;100373.58;1695232;84;21148;-39
2021/06/07 07:09:10;;;;;;;7.95;2.40;;;;;;;20.81;64.15;100377.62;1695135;84;21098;-41
2021/06/07 07:11:36;;;;;;;2.45;2.17;;;;;;;21.06;64.53;100377.84;1695241;84;21047;-40
2021/06/07 07:14:03;;;;;;;8.15;2.67;;;;;;;21.30;64.02;100385.97;1695195;84;20987;-41
2021/06/07 07:16:30;;;;;;;4.03;2.15;;;;;;;21.58;63.29;100383.30;1695295;84;20956;-39
2021/06/07 07:18:57;;;;;;;7.28;2.37;;;;;;;21.75;63.03;100374.33;1695274;84;21156;-38
2021/06/07 07:21:24;;;;;;;19.50;2.85;;;;;;;22.06;62.35;100378.34;1695352;84;20995;-39
2021/06/07 07:23:50;;;;;;;3.37;2.33;;;;;;;22.52;62.11;100379.65;1695240;84;20956;-41
2021/06/07 07:26:17;;;;;;;20.95;3.20;;;;;;;22.99;59.50;100380.34;1695299;84;21020;-40
2021/06/07 07:28:43;;;;;;;13.70;3.15;;;;;;;22.78;57.92;100382.70;1695647;83;20981;-40
2021/06/07 07:31:10;;;;;;;7.15;3.05;;;;;;;22.48;58.93;100386.55;1695187;83;21136;-39
2021/06/07 07:33:38;;;;;;;21.10;3.27;;;;;;;22.07;58.43;100379.20;1695281;84;21055;-40
2021/06/07 07:36:11;;;;;;;7.78;2.95;;;;;;;21.62;60.78;100390.08;1695322;83;20960;-40
2021/06/07 07:38:39;;;;;;;11.20;3.22;;;;;;;21.26;61.84;100393.69;1695376;84;21518;-41
2021/06/07 07:41:05;;;;;;;8.18;2.50;;;;;;;20.96;62.93;100390.73;1695264;84;21024;-41
2021/06/07 07:43:33;;;;;;;20.02;3.27;;;;;;;20.77;63.46;100392.34;1695323;84;21106;-40
2021/06/07 07:46:00;;;;;;;49.45;4.33;;;;;;;20.53;64.71;100386.34;1695243;84;20979;-41
2021/06/07 07:48:27;;;;;;;73.05;5.70;;;;;;;20.42;65.00;100391.43;1695285;84;21067;-40
2021/06/07 07:50:54;;;;;;;21.70;3.50;;;;;;;20.29;66.20;100397.42;1695227;84;21051;-40
2021/06/07 07:53:20;;;;;;;30.23;4.75;;;;;;;20.16;65.99;100400.42;1695360;84;21035;-40
2021/06/07 07:55:50;;;;;;;15.43;3.80;;;;;;;19.88;66.79;100400.71;1695347;84;21139;-39
2021/06/07 07:58:16;;;;;;;24.25;4.10;;;;;;;19.73;67.67;100401.14;1695225;84;21004;-39
2021/06/07 08:00:42;;;;;;;23.12;3.85;;;;;;;19.60;68.55;100401.00;1695659;84;21058;-39
2021/06/07 08:03:09;;;;;;;15.63;4.40;;;;;;;19.60;69.26;100399.20;1695213;84;21003;-39
2021/06/07 08:05:36;;;;;;;43.23;4.35;;;;;;;19.85;69.27;100395.64;1695235;83;21482;-41
2021/06/07 08:08:03;;;;;;;4.97;3.00;;;;;;;20.08;68.78;100395.16;1695319;84;21125;-41
2021/06/07 08:10:30;;;;;;;3.27;2.60;;;;;;;20.29;67.67;100394.79;1695176;84;21545;-41
2021/06/07 08:12:59;;;;;;;2.30;2.10;;;;;;;20.49;67.43;100398.00;1695608;83;21016;-39
2021/06/07 08:15:25;;;;;;;2.67;2.47;;;;;;;20.73;66.50;100398.73;1695391;84;20972;-39
2021/06/07 08:17:51;;;;;;;14.07;3.75;;;;;;;20.84;64.96;100396.33;1695562;84;21026;-40
2021/06/07 08:20:19;;;;;;;8.55;3.08;;;;;;;20.99;64.86;100396.29;1695406;84;21152;-39
2021/06/07 08:22:50;;;;;;;9.18;2.45;;;;;;;21.03;64.33;100395.15;1695525;83;21054;-39
2021/06/07 08:25:20;;;;;;;8.08;2.60;;;;;;;21.13;64.54;100394.09;1695142;84;21008;-40
2021/06/07 08:27:47;;;;;;;3.65;2.87;;;;;;;21.45;64.62;100395.11;1695526;83;21192;-40
2021/06/07 08:30:15;;;;;;;60.67;6.30;;;;;;;21.84;63.72;100387.33;1695639;83;21016;-40
2021/06/07 08:32:41;;;;;;;18.92;3.92;;;;;;;22.16;62.72;100388.28;1710456;83;21725;-40
2021/06/07 08:35:09;;;;;;;15.85;2.80;;;;;;;22.33;62.56;100385.80;1681770;84;20967;-39
2021/06/07 08:37:37;;;;;;;34.20;4.33;;;;;;;22.55;61.51;100390.93;1683821;83;21084;-39
2021/06/07 08:40:09;;;;;;;23.30;3.80;;;;;;;22.51;60.72;100391.61;1700809;84;21612;-39
2021/06/07 08:42:42;;;;;;;11.63;3.00;;;;;;;22.37;60.34;100392.08;1710412;83;21026;-40
2021/06/07 08:45:13;;;;;;;12.15;3.35;;;;;;;22.25;58.79;100395.55;1700827;84;22483;-41
2021/06/07 08:47:42;;;;;;;14.28;3.90;;;;;;;21.91;60.00;100395.22;1683425;85;21008;-40
2021/06/07 08:50:10;;;;;;;11.38;3.62;;;;;;;21.77;60.86;100389.56;1710397;83;20999;-39
2021/06/07 08:52:37;;;;;;;15.70;3.67;;;;;;;21.70;62.60;100398.34;1700844;84;21275;-40
2021/06/07 08:55:05;;;;;;;7.53;3.05;;;;;;;21.60;61.38;100397.20;1683229;83;20991;-40
2021/06/07 08:57:41;;;;;;;10.80;3.02;;;;;;;21.40;61.69;100400.70;1710391;83;21839;-40
2021/06/07 09:00:10;;;;;;;5.25;3.22;;;;;;;21.41;63.96;100390.99;1695798;84;21122;-41
2021/06/07 09:02:38;;;;;;;2.77;2.58;;;;;;;21.33;63.98;100396.75;1710343;82;21030;-41
2021/06/07 09:05:06;;;;;;;4.67;2.85;;;;;;;21.18;63.30;100399.90;1700726;84;21098;-40
2021/06/07 09:07:32;;;;;;;2.50;1.95;;;;;;;20.99;63.00;100389.71;1685049;85;20984;-40
2021/06/07 09:10:11;;;;;;;3.10;2.42;;;;;;;20.88;63.51;100391.25;1659419;85;21073;-39
2021/06/07 09:12:41;;;;;;;4.85;3.45;;;;;;;20.93;63.52;100389.16;1683320;84;20996;-40
2021/06/07 09:15:13;;;;;;;7.12;3.90;;;;;;;21.14;63.90;100387.89;1684321;83;20947;-39
2021/06/07 09:17:46;;;;;;;9.80;3.72;;;;;;;21.28;63.25;100384.36;1681523;84;20932;-40
2021/06/07 09:20:16;;;;;;;9.43;2.95;;;;;;;21.49;63.82;100376.39;1701157;84;22186;-39
2021/06/07 09:22:54;;;;;;;6.35;3.05;;;;;;;21.89;62.88;100374.23;1683221;85;21201;-40
2021/06/07 09:25:23;;;;;;;5.85;3.27;;;;;;;22.23;60.14;100366.67;1710230;82;20979;-39
2021/06/07 09:28:11;;;;;;;5.35;3.20;;;;;;;22.45;60.47;100369.11;1700622;83;21011;-40
2021/06/07 09:30:56;;;;;;;3.47;3.17;;;;;;;22.88;59.03;100361.31;1710747;83;20987;-39
2021/06/07 09:33:39;;;;;;;5.47;2.67;;;;;;;23.30;56.74;100356.14;1658634;84;20920;-41
2021/06/07 09:36:23;;;;;;;4.15;2.95;;;;;;;23.72;55.28;100357.86;1720847;82;21147;-39
2021/06/07 09:39:05;;;;;;;6.83;3.17;;;;;;;23.70;55.57;100347.89;1720537;82;20951;-40
2021/06/07 09:41:56;;;;;;;3.98;3.17;;;;;;;24.05;53.40;100350.98;1692073;84;21520;-40
2021/06/07 09:44:48;;;;;;;2.55;2.35;;;;;;;24.01;52.55;100345.57;1691900;83;20943;-42
2021/06/07 09:47:31;;;;;;;4.40;2.47;;;;;;;23.70;53.03;100345.25;1691934;83;21081;-40
2021/06/07 09:50:06;;;;;;;2.25;2.05;;;;;;;23.35;53.26;100344.76;1691928;83;21162;-40
2021/06/07 09:52:44;;;;;;;2.83;1.92;;;;;;;23.45;53.05;100348.42;1692170;83;21496;-40
2021/06/07 09:55:21;;;;;;;5.00;1.60;;;;;;;23.74;52.41;100344.52;1691975;83;20978;-42
2021/06/07 09:57:55;;;;;;;2.20;2.00;;;;;;;24.03;50.38;100348.94;1691896;84;20999;-39
2021/06/07 10:00:43;;;;;;;4.50;1.80;;;;;;;24.11;50.42;100338.59;1691982;84;22292;-39
2021/06/07 10:03:31;;;;;;;3.02;1.80;;;;;;;24.26;49.14;100341.02;1690629;83;21235;-41
2021/06/07 10:06:03;;;;;;;13.35;2.37;;;;;;;24.36;51.30;100339.82;1690658;84;22321;-42
2021/06/07 10:08:47;;;;;;;35.40;3.58;;;;;;;24.73;49.83;100336.88;1720797;82;21612;-41
2021/06/07 10:11:23;;;;;;;10.43;2.00;;;;;;;24.89;50.69;100338.33;1692114;84;21595;-41
2021/06/07 10:13:53;;;;;;;6.67;1.40;;;;;;;24.82;47.80;100341.48;1691899;83;20950;-40
2021/06/07 10:16:20;;;;;;;15.75;1.70;;;;;;;24.46;46.65;100335.97;1666834;83;21099;-40
2021/06/07 10:18:48;;;;;;;21.25;1.85;;;;;;;24.19;48.03;100339.33;1692037;84;22530;-41
2021/06/07 10:21:14;;;;;;;24.45;2.60;;;;;;;24.00;47.23;100341.68;1692116;83;21461;-40
2021/06/07 10:23:41;;;;;;;106.75;5.45;;;;;;;23.89;47.29;100339.89;1691988;84;20923;-39
2021/06/07 10:26:08;;;;;;;40.40;4.87;;;;;;;23.73;48.62;100331.80;1686491;83;20970;-40
2021/06/07 10:28:39;;;;;;;31.17;3.90;;;;;;;23.52;49.74;100332.96;1702494;84;21103;-41
2021/06/07 10:31:18;;;;;;;21.42;2.72;;;;;;;23.17;52.32;100333.27;1699517;84;21022;-41
2021/06/07 10:34:07;;;;;;;30.72;3.67;;;;;;;23.05;53.43;100331.52;1682291;85;21574;-41
2021/06/07 10:36:46;;;;;;;21.57;3.10;;;;;;;23.12;55.36;100328.81;1647452;84;21000;-40
2021/06/07 10:39:22;;;;;;;21.65;2.60;;;;;;;23.48;52.81;100323.09;1695233;83;21015;-41
2021/06/07 10:42:14;;;;;;;16.90;2.17;;;;;;;23.79;53.54;100322.08;1695575;84;21114;-41
2021/06/07 10:44:51;;;;;;;44.95;3.20;;;;;;;24.34;52.36;100323.23;1695102;83;21051;-41
2021/06/07 10:47:21;;;;;;;20.32;2.95;;;;;;;24.61;50.43;100316.22;1694816;84;21661;-42
2021/06/07 10:49:57;;;;;;;31.40;3.58;;;;;;;24.81;51.33;100310.69;1695410;84;21620;-42
2021/06/07 10:52:27;;;;;;;55.67;4.72;;;;;;;25.03;48.76;100310.73;1695630;84;21494;-40
2021/06/07 10:55:07;;;;;;;23.65;2.10;;;;;;;25.30;47.10;100306.77;1695302;83;21130;-40
2021/06/07 10:57:40;;;;;;;18.85;2.47;;;;;;;25.13;45.74;100315.61;1695306;84;21024;-41
2021/06/07 11:00:22;;;;;;;91.35;5.37;;;;;;;24.72;45.04;100311.38;1695518;84;20999;-40
2021/06/07 11:02:49;;;;;;;50.52;4.58;;;;;;;24.68;46.41;100308.16;1695384;84;21518;-40
2021/06/07 11:05:23;;;;;;;59.55;3.72;;;;;;;24.96;45.99;100303.77;1695456;84;21011;-40
2021/06/07 11:08:09;;;;;;;53.58;4.15;;;;;;;25.30;44.58;100298.82;1695567;84;21109;-41
2021/06/07 11:10:43;;;;;;;46.05;3.08;;;;;;;25.58;46.17;100298.70;1669180;83;21004;-40
2021/06/07 11:13:15;;;;;;;13.05;2.20;;;;;;;25.78;43.14;100297.00;1694830;84;20980;-39
2021/06/07 11:15:57;;;;;;;19.80;1.82;;;;;;;25.63;42.83;100296.97;1695518;84;20976;-41
2021/06/07 11:18:34;;;;;;;12.55;1.77;;;;;;;25.34;43.00;100304.21;1695406;83;21051;-39
2021/06/07 11:21:12;;;;;;;72.35;4.40;;;;;;;24.98;45.54;100298.36;1695497;84;21178;-41
2021/06/07 11:23:44;;;;;;;12.37;1.10;;;;;;;24.98;43.79;100294.39;1693511;84;21015;-40
2021/06/07 11:26:13;;;;;;;27.27;3.65;;;;;;;25.05;41.83;100288.94;1695283;84;21075;-41
2021/06/07 11:28:49;;;;;;;59.80;3.95;;;;;;;25.07;41.92;100284.36;1695532;84;20980;-40
2021/06/07 11:31:21;;;;;;;40.43;2.12;;;;;;;25.05;43.83;100294.23;1696065;83;21060;-40
2021/06/07 11:34:01;;;;;;;29.87;1.95;;;;;;;25.27;43.49;100297.28;1710500;82;21163;-40
2021/06/07 11:36:51;;;;;;;58.17;3.95;;;;;;;25.62;42.38;100291.32;1700937;84;21057;-41